createdAt,value
2019-04-29T00:00:41.680Z,9.67
2019-04-29T00:03:09.089Z,8.50
2019-04-29T00:05:36.393Z,11.27
2019-04-29T00:08:03.702Z,12.70
2019-04-29T00:10:30.998Z,9.43
2019-04-29T00:12:58.197Z,9.20
2019-04-29T00:15:43.615Z,11.33
2019-04-29T00:18:17.713Z,12.87
2019-04-29T00:20:47.364Z,9.80
2019-04-29T00:23:14.544Z,8.77
2019-04-29T00:25:41.977Z,8.90
2019-04-29T00:28:09.600Z,11.30
2019-04-29T00:30:36.905Z,10.43
2019-04-29T00:33:04.260Z,14.20
2019-04-29T00:35:31.461Z,12.03
2019-04-29T00:38:16.841Z,8.93
2019-04-29T00:41:12.368Z,11.10
2019-04-29T00:43:47.096Z,7.30
2019-04-29T00:46:14.397Z,12.30
2019-04-29T00:48:41.576Z,10.53
2019-04-29T00:51:08.804Z,9.70
2019-04-29T00:53:36.400Z,11.43
2019-04-29T00:56:04.713Z,14.70
2019-04-29T00:58:31.932Z,10.63
2019-04-29T01:00:59.272Z,10.37
2019-04-29T01:03:26.453Z,8.97
2019-04-29T01:05:53.745Z,9.60
2019-04-29T01:08:20.932Z,8.83
2019-04-29T01:10:48.248Z,11.20
2019-04-29T01:13:15.456Z,7.80
2019-04-29T01:15:42.655Z,9.20
2019-04-29T01:18:10.036Z,8.63
2019-04-29T01:20:37.225Z,9.07
2019-04-29T01:23:04.664Z,10.53
2019-04-29T01:25:31.839Z,13.67
2019-04-29T01:28:12.558Z,8.20
2019-04-29T01:30:54.257Z,9.77
2019-04-29T01:33:21.841Z,9.97
2019-04-29T01:35:51.065Z,12.87
2019-04-29T01:38:18.325Z,16.27
2019-04-29T01:40:55.434Z,13.10
2019-04-29T01:43:22.637Z,14.63
2019-04-29T01:45:49.832Z,10.20
2019-04-29T01:48:17.037Z,10.30
2019-04-29T01:50:44.220Z,11.57
2019-04-29T01:53:11.441Z,12.70
2019-04-29T01:55:38.633Z,10.53
2019-04-29T01:58:05.828Z,13.00
2019-04-29T02:00:33.121Z,13.87
2019-04-29T02:03:00.337Z,14.07
2019-04-29T02:05:27.516Z,12.13
2019-04-29T02:07:54.713Z,11.63
2019-04-29T02:10:27.987Z,11.37
2019-04-29T02:12:55.195Z,13.00
2019-04-29T02:15:22.433Z,15.13
2019-04-29T02:17:49.633Z,14.30
2019-04-29T02:20:16.808Z,14.33
2019-04-29T02:23:09.567Z,16.20
2019-04-29T02:25:39.375Z,13.00
2019-04-29T02:28:06.572Z,15.37
2019-04-29T02:30:41.078Z,17.00
2019-04-29T02:33:08.294Z,12.40
2019-04-29T02:35:35.502Z,14.60
2019-04-29T02:38:04.417Z,14.17
2019-04-29T02:40:38.521Z,15.60
2019-04-29T02:43:11.201Z,13.80
2019-04-29T02:45:38.393Z,16.37
2019-04-29T02:48:05.694Z,16.40
2019-04-29T02:50:33.009Z,17.03
2019-04-29T02:53:00.257Z,15.93
2019-04-29T02:55:37.714Z,15.07
2019-04-29T02:58:13.353Z,17.80
2019-04-29T03:01:00.186Z,21.40
2019-04-29T03:03:39.492Z,14.40
2019-04-29T03:06:06.701Z,17.47
2019-04-29T03:08:33.885Z,17.43
2019-04-29T03:11:01.089Z,15.30
2019-04-29T03:13:28.320Z,17.00
2019-04-29T03:15:55.602Z,17.03
2019-04-29T03:18:24.953Z,14.63
2019-04-29T03:21:09.704Z,16.00
2019-04-29T03:23:36.881Z,17.30
2019-04-29T03:26:04.073Z,22.47
2019-04-29T03:28:31.382Z,22.03
2019-04-29T03:30:58.686Z,21.20
2019-04-29T03:33:25.977Z,22.37
2019-04-29T03:35:53.180Z,18.40
2019-04-29T03:38:20.362Z,20.70
2019-04-29T03:40:47.565Z,20.07
2019-04-29T03:43:14.769Z,19.23
2019-04-29T03:45:42.002Z,19.77
2019-04-29T03:48:09.328Z,17.77
2019-04-29T03:50:36.534Z,21.23
2019-04-29T03:53:03.713Z,17.83
2019-04-29T03:55:39.912Z,20.63
2019-04-29T03:58:00.013Z,20.03
2019-04-29T04:00:27.303Z,18.47
2019-04-29T04:03:14.220Z,18.60
2019-04-29T04:06:19.377Z,18.23
2019-04-29T04:09:04.957Z,17.47
2019-04-29T04:11:19.344Z,16.77
2019-04-29T04:13:46.672Z,12.80
2019-04-29T04:16:24.110Z,18.80
2019-04-29T04:19:03.879Z,14.27
2019-04-29T04:21:31.294Z,15.37
2019-04-29T04:23:58.501Z,16.63
2019-04-29T04:26:25.793Z,16.50
2019-04-29T04:28:53.066Z,17.23
2019-04-29T04:31:20.271Z,20.93
2019-04-29T04:33:47.482Z,15.57
2019-04-29T04:36:14.705Z,21.17
2019-04-29T04:38:41.898Z,15.57
2019-04-29T04:41:10.505Z,16.83
2019-04-29T04:43:37.745Z,16.53
2019-04-29T04:46:04.933Z,14.33
2019-04-29T04:48:32.138Z,14.87
2019-04-29T04:50:59.325Z,14.60
2019-04-29T04:53:26.522Z,14.80
2019-04-29T04:55:56.413Z,14.80
2019-04-29T04:58:23.669Z,16.23
2019-04-29T05:00:50.957Z,16.30
2019-04-29T05:03:18.188Z,18.10
2019-04-29T05:05:45.458Z,13.53
2019-04-29T05:08:12.740Z,15.77
2019-04-29T05:10:39.941Z,16.70
2019-04-29T05:13:07.196Z,23.30
2019-04-29T05:15:34.420Z,15.97
2019-04-29T05:18:01.745Z,18.53
2019-04-29T05:20:28.940Z,17.70
2019-04-29T05:22:58.831Z,18.27
2019-04-29T05:25:27.660Z,21.03
2019-04-29T05:27:54.871Z,18.47
2019-04-29T05:30:22.045Z,19.20
2019-04-29T05:32:49.225Z,17.33
2019-04-29T05:35:20.842Z,21.20
2019-04-29T05:37:58.341Z,19.80
2019-04-29T05:40:46.325Z,19.63
2019-04-29T05:43:16.169Z,16.63
2019-04-29T05:45:50.613Z,20.37
2019-04-29T05:48:18.212Z,23.90
2019-04-29T05:51:07.646Z,22.80
2019-04-29T05:53:38.913Z,16.87
2019-04-29T05:56:06.108Z,27.33
2019-04-29T05:58:37.925Z,21.73
2019-04-29T06:01:07.791Z,17.67
2019-04-29T06:03:37.833Z,20.30
2019-04-29T06:06:04.077Z,24.20
2019-04-29T06:08:34.473Z,20.27
2019-04-29T06:11:00.528Z,21.93
2019-04-29T06:13:27.712Z,20.87
2019-04-29T06:15:54.920Z,24.53
2019-04-29T06:18:23.726Z,20.33
2019-04-29T06:20:51.108Z,22.13
2019-04-29T06:23:19.014Z,20.40
2019-04-29T06:25:47.392Z,18.27
2019-04-29T06:28:14.577Z,19.50
2019-04-29T06:30:45.129Z,21.57
2019-04-29T06:33:10.853Z,17.63
2019-04-29T06:35:38.029Z,19.30
2019-04-29T06:38:05.205Z,37.50
2019-04-29T06:40:35.363Z,25.43
2019-04-29T06:43:01.477Z,22.50
2019-04-29T06:45:28.656Z,22.50
2019-04-29T06:47:55.849Z,31.33
2019-04-29T06:50:23.021Z,22.73
2019-04-29T06:52:50.204Z,19.53
2019-04-29T06:55:17.384Z,17.60
2019-04-29T06:57:44.569Z,18.27
2019-04-29T07:00:12.052Z,22.17
2019-04-29T07:02:39.248Z,23.40
2019-04-29T07:05:06.640Z,18.43
2019-04-29T07:07:33.850Z,20.20
2019-04-29T07:10:01.047Z,18.77
2019-04-29T07:12:28.236Z,14.87
2019-04-29T07:14:55.431Z,14.17
2019-04-29T07:17:22.658Z,15.53
2019-04-29T07:19:49.857Z,12.13
2019-04-29T07:22:20.996Z,11.67
2019-04-29T07:24:46.205Z,17.97
2019-04-29T07:27:13.396Z,10.20
2019-04-29T07:29:40.605Z,14.40
2019-04-29T07:32:09.412Z,11.87
2019-04-29T07:34:39.539Z,11.40
2019-04-29T07:37:06.120Z,10.60
2019-04-29T07:39:33.533Z,10.67
2019-04-29T07:42:03.311Z,10.03
2019-04-29T07:44:43.834Z,9.73
2019-04-29T07:47:04.069Z,10.20
2019-04-29T07:49:31.289Z,9.10
2019-04-29T07:51:58.500Z,13.10
2019-04-29T07:54:25.704Z,12.10
2019-04-29T07:56:52.898Z,10.90
2019-04-29T07:59:20.100Z,9.87
2019-04-29T08:01:47.280Z,12.17
2019-04-29T08:04:14.478Z,10.70
2019-04-29T08:06:42.700Z,9.53
2019-04-29T08:09:11.160Z,8.87
2019-04-29T08:11:38.553Z,12.00
2019-04-29T08:14:05.761Z,8.63
2019-04-29T08:16:32.952Z,6.77
2019-04-29T08:19:00.160Z,8.27
2019-04-29T08:21:27.359Z,7.97
2019-04-29T08:23:54.549Z,8.07
2019-04-29T08:26:21.740Z,7.03
2019-04-29T08:28:52.912Z,11.03
2019-04-29T08:31:21.054Z,8.90
2019-04-29T08:33:48.513Z,9.13
2019-04-29T08:36:15.824Z,12.33
2019-04-29T08:38:43.040Z,12.37
2019-04-29T08:41:10.240Z,10.53
2019-04-29T08:43:45.428Z,10.13
2019-04-29T08:46:16.289Z,16.23
2019-04-29T08:48:45.902Z,9.67
2019-04-29T08:51:12.593Z,10.30
2019-04-29T08:53:39.800Z,12.77
2019-04-29T08:56:10.182Z,13.30
2019-04-29T08:58:39.187Z,9.43
2019-04-29T09:01:05.234Z,11.20
2019-04-29T09:03:40.074Z,10.43
2019-04-29T09:06:05.403Z,8.70
2019-04-29T09:08:33.092Z,10.77
2019-04-29T09:10:59.857Z,9.73
2019-04-29T09:13:27.061Z,8.20
2019-04-29T09:15:54.244Z,9.80
2019-04-29T09:18:21.460Z,9.83
2019-04-29T09:20:48.681Z,8.30
2019-04-29T09:23:18.667Z,8.47
2019-04-29T09:26:14.505Z,7.30
2019-04-29T09:28:41.836Z,12.60
2019-04-29T09:31:09.258Z,8.53
2019-04-29T09:33:36.658Z,9.67
2019-04-29T09:36:03.932Z,9.93
2019-04-29T09:38:32.588Z,9.40
2019-04-29T09:41:19.877Z,9.60
2019-04-29T09:44:12.445Z,9.30
2019-04-29T09:46:39.742Z,16.37
2019-04-29T09:49:06.926Z,12.43
2019-04-29T09:51:34.153Z,9.50
2019-04-29T09:54:01.373Z,9.63
2019-04-29T09:56:28.804Z,11.03
2019-04-29T09:59:14.217Z,11.50
2019-04-29T10:01:50.600Z,9.97
2019-04-29T10:04:32.158Z,16.10
2019-04-29T10:06:59.329Z,11.27
2019-04-29T10:09:26.525Z,9.90
2019-04-29T10:11:53.747Z,12.23
2019-04-29T10:14:21.053Z,12.03
2019-04-29T10:17:11.261Z,12.33
2019-04-29T10:20:02.040Z,8.47
2019-04-29T10:22:29.501Z,13.60
2019-04-29T10:24:56.701Z,8.60
2019-04-29T10:27:23.901Z,7.80
2019-04-29T10:29:55.134Z,11.40
2019-04-29T10:32:24.304Z,9.33
2019-04-29T10:34:51.511Z,15.00
2019-04-29T10:37:18.697Z,10.03
2019-04-29T10:39:55.188Z,12.40
2019-04-29T10:42:31.597Z,10.87
2019-04-29T10:45:17.349Z,8.53
2019-04-29T10:47:59.999Z,8.00
2019-04-29T10:50:31.941Z,8.80
2019-04-29T10:53:00.133Z,8.70
2019-04-29T10:55:30.068Z,8.10
2019-04-29T10:57:56.842Z,8.23
2019-04-29T11:00:59.340Z,10.07
2019-04-29T11:03:26.669Z,7.43
2019-04-29T11:06:00.589Z,7.63
2019-04-29T11:08:52.377Z,7.67
2019-04-29T11:11:23.200Z,5.73
2019-04-29T11:13:50.752Z,9.83
2019-04-29T11:16:18.253Z,7.30
2019-04-29T11:18:45.758Z,5.60
2019-04-29T11:21:13.073Z,6.23
2019-04-29T11:24:06.140Z,6.83
2019-04-29T11:26:47.357Z,6.63
2019-04-29T11:29:14.540Z,6.13
2019-04-29T11:31:41.939Z,11.17
2019-04-29T11:34:19.456Z,10.73
2019-04-29T11:36:46.644Z,6.50
2019-04-29T11:39:15.510Z,6.67
2019-04-29T11:41:42.964Z,4.70
2019-04-29T11:44:10.289Z,5.10
2019-04-29T11:46:37.606Z,4.57
2019-04-29T11:49:06.104Z,4.90
2019-04-29T11:51:49.426Z,3.47
2019-04-29T11:54:08.223Z,4.83
2019-04-29T11:56:35.282Z,7.20
2019-04-29T11:59:28.983Z,5.40
2019-04-29T12:02:11.120Z,5.43
2019-04-29T12:04:42.294Z,4.50
2019-04-29T12:07:09.744Z,4.77
2019-04-29T12:09:37.101Z,4.77
2019-04-29T12:12:07.816Z,4.80
2019-04-29T12:14:54.891Z,4.63
2019-04-29T12:17:26.901Z,6.00
2019-04-29T12:19:56.706Z,5.00
2019-04-29T12:22:30.286Z,4.47
2019-04-29T12:24:53.040Z,6.00
2019-04-29T12:27:21.748Z,4.37
2019-04-29T12:29:54.237Z,13.93
2019-04-29T12:32:36.152Z,4.50
2019-04-29T12:35:32.216Z,3.20
2019-04-29T12:38:19.037Z,5.40
2019-04-29T12:41:21.070Z,4.10
2019-04-29T12:43:56.843Z,3.93
2019-04-29T12:46:26.365Z,3.30
2019-04-29T12:48:53.565Z,4.67
2019-04-29T12:51:21.793Z,3.27
2019-04-29T12:53:49.107Z,3.27
2019-04-29T12:56:19.144Z,3.50
2019-04-29T12:58:50.420Z,5.13
2019-04-29T13:01:22.550Z,3.53
2019-04-29T13:04:02.113Z,3.33
2019-04-29T13:06:39.376Z,2.67
2019-04-29T13:09:18.002Z,3.60
2019-04-29T13:11:48.783Z,3.50
2019-04-29T13:14:11.589Z,2.90
2019-04-29T13:16:57.075Z,2.93
2019-04-29T13:19:31.079Z,3.20
2019-04-29T13:21:58.684Z,4.93
2019-04-29T13:24:26.026Z,3.07
2019-04-29T13:26:53.661Z,3.73
2019-04-29T13:29:27.454Z,3.40
2019-04-29T13:31:50.065Z,2.03
2019-04-29T13:34:24.738Z,4.50
2019-04-29T13:37:06.714Z,4.23
2019-04-29T13:39:38.347Z,1.93
2019-04-29T13:41:57.507Z,4.57
2019-04-29T13:44:20.453Z,1.83
2019-04-29T13:47:05.641Z,1.63
2019-04-29T13:49:41.862Z,2.20
2019-04-29T13:52:09.524Z,2.50
2019-04-29T13:54:37.363Z,1.27
2019-04-29T13:57:09.367Z,1.40
2019-04-29T13:59:49.371Z,9.33
2019-04-29T14:02:31.148Z,1.50
2019-04-29T14:05:00.314Z,1.83
2019-04-29T14:07:27.665Z,1.90
2019-04-29T14:09:54.889Z,1.37
2019-04-29T14:12:47.625Z,8.43
2019-04-29T14:14:54.030Z,1.70
2019-04-29T14:17:26.665Z,5.10
2019-04-29T14:19:49.486Z,6.50
2019-04-29T14:22:22.547Z,1.60
2019-04-29T14:24:46.947Z,1.80
2019-04-29T14:27:24.612Z,2.00
2019-04-29T14:29:43.676Z,1.60
2019-04-29T14:32:10.875Z,1.77
2019-04-29T14:35:00.369Z,2.27
2019-04-29T14:37:27.685Z,1.67
2019-04-29T14:39:54.900Z,1.60
2019-04-29T14:42:30.196Z,1.83
2019-04-29T14:45:16.710Z,2.43
2019-04-29T14:48:03.537Z,2.30
2019-04-29T14:50:30.833Z,1.40
2019-04-29T14:52:58.029Z,1.60
2019-04-29T14:55:27.091Z,2.43
2019-04-29T14:57:54.409Z,4.27
2019-04-29T15:00:33.757Z,2.83
2019-04-29T15:03:02.681Z,2.10
2019-04-29T15:05:32.899Z,2.20
2019-04-29T15:07:59.412Z,6.23
2019-04-29T15:10:30.710Z,6.03
2019-04-29T15:13:19.744Z,2.67
2019-04-29T15:16:03.865Z,1.97
2019-04-29T15:18:47.504Z,2.80
2019-04-29T15:21:32.430Z,2.40
2019-04-29T15:23:59.617Z,2.47
2019-04-29T15:26:26.898Z,2.93
2019-04-29T15:28:54.129Z,4.73
2019-04-29T15:31:22.043Z,7.43
2019-04-29T15:33:49.311Z,6.43
2019-04-29T15:36:16.553Z,5.50
2019-04-29T15:38:48.910Z,5.57
2019-04-29T15:41:12.832Z,17.73
2019-04-29T15:43:47.485Z,6.07
2019-04-29T15:46:11.450Z,4.47
2019-04-29T15:48:38.366Z,5.90
2019-04-29T15:51:09.120Z,2.90
2019-04-29T15:53:37.821Z,10.00
2019-04-29T15:56:07.152Z,6.60
2019-04-29T15:58:33.411Z,3.97
2019-04-29T16:01:12.969Z,2.27
2019-04-29T16:03:30.496Z,2.83
2019-04-29T16:06:20.610Z,3.07
2019-04-29T16:08:59.993Z,2.50
2019-04-29T16:11:35.797Z,3.30
2019-04-29T16:16:33.338Z,3.27
2019-04-29T16:19:07.804Z,3.47
2019-04-29T16:21:32.386Z,2.63
2019-04-29T16:23:58.917Z,3.00
2019-04-29T16:26:30.217Z,8.30
2019-04-29T16:28:55.293Z,6.23
2019-04-29T16:31:22.626Z,5.60
2019-04-29T16:33:54.575Z,7.10
2019-04-29T16:36:19.070Z,3.53
2019-04-29T16:38:51.063Z,4.30
2019-04-29T16:41:35.052Z,3.23
2019-04-29T16:44:03.274Z,2.80
2019-04-29T16:46:37.347Z,2.63
2019-04-29T16:49:00.768Z,2.93
2019-04-29T16:51:28.283Z,5.47
2019-04-29T16:53:55.648Z,3.27
2019-04-29T16:56:22.878Z,3.37
2019-04-29T16:58:50.204Z,2.57
2019-04-29T17:01:17.552Z,2.50
2019-04-29T17:03:44.744Z,4.17
2019-04-29T17:06:12.067Z,3.00
2019-04-29T17:09:04.954Z,4.53
2019-04-29T17:11:32.576Z,2.60
2019-04-29T17:14:03.375Z,2.60
2019-04-29T17:16:29.690Z,6.90
2019-04-29T17:18:57.096Z,6.87
2019-04-29T17:21:24.645Z,3.73
2019-04-29T17:23:52.177Z,2.63
2019-04-29T17:26:21.291Z,3.80
2019-04-29T17:28:58.623Z,3.77
2019-04-29T17:31:37.268Z,3.47
2019-04-29T17:34:10.402Z,8.23
2019-04-29T17:35:13.991Z,3.00
2019-04-29T17:36:38.150Z,7.07
2019-04-29T17:39:06.877Z,4.57
2019-04-29T17:41:34.499Z,5.53
2019-04-29T17:44:18.668Z,5.70
2019-04-29T17:47:16.513Z,3.93
2019-04-29T17:50:07.077Z,3.80
2019-04-29T17:52:35.500Z,4.17
2019-04-29T17:55:12.337Z,5.10
2019-04-29T17:57:45.695Z,4.10
2019-04-29T18:00:43.720Z,4.40
2019-04-29T18:03:34.797Z,8.93
2019-04-29T18:06:08.930Z,4.57
2019-04-29T18:08:56.190Z,6.20
2019-04-29T18:11:25.094Z,4.63
2019-04-29T18:13:56.572Z,5.30
2019-04-29T18:16:27.995Z,5.13
2019-04-29T18:19:05.537Z,4.80
2019-04-29T18:21:53.566Z,4.23
2019-04-29T18:24:43.245Z,4.90
2019-04-29T18:27:15.289Z,4.20
2019-04-29T18:29:43.126Z,5.40
2019-04-29T18:32:11.163Z,7.97
2019-04-29T18:34:38.380Z,5.90
2019-04-29T18:37:06.530Z,6.70
2019-04-29T18:39:34.630Z,7.33
2019-04-29T18:42:06.130Z,7.57
2019-04-29T18:44:32.314Z,7.30
2019-04-29T18:46:59.683Z,8.33
2019-04-29T18:49:26.908Z,7.73
2019-04-29T18:51:54.125Z,8.80
2019-04-29T18:54:21.346Z,8.80
2019-04-29T18:56:48.649Z,8.87
2019-04-29T18:59:20.999Z,8.90
2019-04-29T19:01:46.069Z,8.37
2019-04-29T19:04:28.249Z,8.10
2019-04-29T19:06:59.390Z,11.23
2019-04-29T19:09:27.911Z,8.83
2019-04-29T19:11:57.267Z,7.73
2019-04-29T19:14:28.157Z,7.50
2019-04-29T19:17:00.142Z,9.97
2019-04-29T19:19:25.233Z,9.80
2019-04-29T19:21:52.509Z,10.87
2019-04-29T19:24:19.880Z,8.30
2019-04-29T19:26:47.129Z,7.60
2019-04-29T19:29:15.610Z,9.73
2019-04-29T19:31:48.340Z,9.63
2019-04-29T19:34:14.776Z,8.80
2019-04-29T19:36:41.673Z,10.03
2019-04-29T19:39:09.045Z,8.93
2019-04-29T19:41:36.329Z,16.60
2019-04-29T19:44:07.642Z,9.90
2019-04-29T19:46:38.291Z,12.20
2019-04-29T19:49:07.497Z,9.57
2019-04-29T19:51:31.712Z,8.83
2019-04-29T19:53:58.925Z,10.10
2019-04-29T19:56:27.062Z,11.87
2019-04-29T19:58:57.338Z,10.13
2019-04-29T20:01:29.901Z,8.40
2019-04-29T20:04:22.411Z,10.13
2019-04-29T20:06:48.468Z,8.70
2019-04-29T20:09:22.429Z,9.73
2019-04-29T20:11:47.679Z,10.83
2019-04-29T20:14:21.293Z,13.63
2019-04-29T20:17:17.659Z,17.20
2019-04-29T20:20:00.862Z,14.97
2019-04-29T20:22:28.505Z,14.03
2019-04-29T20:24:56.004Z,14.93
2019-04-29T20:27:26.000Z,18.03
2019-04-29T20:29:52.632Z,16.13
2019-04-29T20:32:22.560Z,16.70
2019-04-29T20:34:49.214Z,15.27
2019-04-29T20:37:19.729Z,15.83
2019-04-29T20:39:45.836Z,14.33
2019-04-29T20:42:13.479Z,14.07
2019-04-29T20:44:44.761Z,14.73
2019-04-29T20:47:19.702Z,16.10
2019-04-29T20:49:39.829Z,13.90
2019-04-29T20:52:21.635Z,15.40
2019-04-29T20:54:57.869Z,13.70
2019-04-29T20:57:21.662Z,14.10
2019-04-29T20:59:50.415Z,12.67
2019-04-29T21:02:29.286Z,13.83
2019-04-29T21:04:47.415Z,15.00
2019-04-29T21:07:18.484Z,12.03
2019-04-29T21:09:45.649Z,12.10
2019-04-29T21:12:29.854Z,13.60
2019-04-29T21:14:59.493Z,12.97
2019-04-29T21:17:31.471Z,11.60
2019-04-29T21:19:56.109Z,12.40
2019-04-29T21:22:24.158Z,11.73
2019-04-29T21:24:53.804Z,11.33
2019-04-29T21:27:22.690Z,11.70
2019-04-29T21:29:54.010Z,9.83
2019-04-29T21:32:19.996Z,11.00
2019-04-29T21:34:55.588Z,10.17
2019-04-29T21:37:39.944Z,10.23
2019-04-29T21:40:18.803Z,9.50
2019-04-29T21:42:48.667Z,8.50
2019-04-29T21:45:17.534Z,9.37
2019-04-29T21:47:51.805Z,7.23
2019-04-29T21:50:15.165Z,8.03
2019-04-29T21:52:42.712Z,8.27
2019-04-29T21:55:09.916Z,9.43
2019-04-29T21:57:37.120Z,7.43
2019-04-29T22:00:05.688Z,7.67
2019-04-29T22:02:33.052Z,7.60
2019-04-29T22:05:00.249Z,8.20
2019-04-29T22:07:27.453Z,7.80
2019-04-29T22:09:55.601Z,7.67
2019-04-29T22:12:23.164Z,6.93
2019-04-29T22:14:53.745Z,7.20
2019-04-29T22:17:19.444Z,8.53
2019-04-29T22:19:46.647Z,7.20
2019-04-29T22:22:14.065Z,7.03
2019-04-29T22:24:41.281Z,7.40
2019-04-29T22:27:08.510Z,7.70
2019-04-29T22:29:37.172Z,7.00
2019-04-29T22:32:07.595Z,8.93
2019-04-29T22:34:35.433Z,6.73
2019-04-29T22:37:02.793Z,7.90
2019-04-29T22:39:30.309Z,6.90
2019-04-29T22:42:23.649Z,6.63
2019-04-29T22:44:52.520Z,8.13
2019-04-29T22:47:23.462Z,5.83
2019-04-29T22:49:47.499Z,7.00
2019-04-29T22:52:14.680Z,7.73
2019-04-29T22:54:41.881Z,7.90
2019-04-29T22:57:09.373Z,6.80
2019-04-29T22:59:36.553Z,7.47
2019-04-29T23:02:05.821Z,6.70
2019-04-29T23:04:34.989Z,6.40
2019-04-29T23:07:02.301Z,6.50
2019-04-29T23:09:29.509Z,6.90
2019-04-29T23:11:56.805Z,5.50
2019-04-29T23:14:25.228Z,6.87
2019-04-29T23:16:52.605Z,9.30
2019-04-29T23:19:19.916Z,5.53
2019-04-29T23:22:05.766Z,7.53
2019-04-29T23:25:01.813Z,8.03
2019-04-29T23:27:29.192Z,8.57
2019-04-29T23:29:56.588Z,6.33
2019-04-29T23:32:25.346Z,9.07
2019-04-29T23:34:52.806Z,7.07
2019-04-29T23:37:23.924Z,7.43
2019-04-29T23:39:50.011Z,9.20
2019-04-29T23:42:17.232Z,10.37
2019-04-29T23:44:44.433Z,9.00
2019-04-29T23:47:12.184Z,8.73
2019-04-29T23:49:42.961Z,11.30
2019-04-29T23:52:11.550Z,9.90
2019-04-29T23:54:44.169Z,10.40
2019-04-29T23:57:32.125Z,11.93
